Time;durP1;ratioP1;P1;durP2;ratioP2;P2;SDS_P1;SDS_P2;PMS_P1;PMS_P2;Temp;Humidity;BMP_temperature;BMP_pressure;BME280_temperature;BME280_humidity;BME280_pressure;Samples;Min_cycle;Max_cycle;Signal;HPM_P1;HPM_P2
2023/08/24 00:02:06;;;;;;;17.98;8.82;;;18.30;99.90;;;;;;5020545;28;20115;-57
2023/08/24 00:04:32;;;;;;;17.48;8.93;;;18.30;99.90;;;;;;5013877;28;20038;-56
2023/08/24 00:06:58;;;;;;;13.98;8.68;;;18.40;99.90;;;;;;5007474;28;20041;-55
2023/08/24 00:09:24;;;;;;;16.40;9.13;;;18.40;99.90;;;;;;5000426;28;20490;-56
2023/08/24 00:11:50;;;;;;;13.18;8.32;;;18.40;99.90;;;;;;4998190;28;20031;-55
2023/08/24 00:14:15;;;;;;;18.02;9.10;;;18.30;99.90;;;;;;5003942;28;20070;-57
2023/08/24 00:16:42;;;;;;;13.30;8.60;;;18.40;99.90;;;;;;5011552;28;20046;-57
2023/08/24 00:19:07;;;;;;;14.48;9.30;;;18.20;99.90;;;;;;5008334;28;20022;-57
2023/08/24 00:21:33;;;;;;;16.13;9.05;;;18.10;99.90;;;;;;5002557;28;20041;-57
2023/08/24 00:23:59;;;;;;;17.35;9.00;;;18.10;99.90;;;;;;5004908;28;20041;-57
2023/08/24 00:26:25;;;;;;;13.85;8.25;;;18.20;99.90;;;;;;5018380;28;20034;-55
2023/08/24 00:28:53;;;;;;;16.38;8.80;;;18.20;99.90;;;;;;5005631;28;20034;-57
2023/08/24 00:31:19;;;;;;;17.23;9.13;;;18.20;99.90;;;;;;5002489;28;20090;-58
2023/08/24 00:33:44;;;;;;;12.88;8.85;;;18.10;99.90;;;;;;5006507;28;20046;-56
2023/08/24 00:36:10;;;;;;;15.18;8.80;;;18.10;99.90;;;;;;5013317;28;20042;-57
2023/08/24 00:38:37;;;;;;;16.60;9.30;;;18.10;99.90;;;;;;5006268;28;20132;-56
2023/08/24 00:41:02;;;;;;;16.20;9.40;;;18.10;99.90;;;;;;5013871;28;20038;-56
2023/08/24 00:43:29;;;;;;;13.13;8.68;;;18.10;99.90;;;;;;5004815;28;20327;-57
2023/08/24 00:46:01;;;;;;;17.23;9.13;;;18.10;99.90;;;;;;5006852;28;20096;-57
2023/08/24 00:48:28;;;;;;;15.80;8.50;;;17.90;99.90;;;;;;5002060;28;20088;-56
2023/08/24 00:51:01;;;;;;;16.30;8.75;;;17.90;99.90;;;;;;5008612;28;20045;-57
2023/08/24 00:53:28;;;;;;;15.35;9.23;;;18.00;99.90;;;;;;5025926;28;20037;-54
2023/08/24 00:55:54;;;;;;;16.40;9.43;;;18.10;99.90;;;;;;5026265;28;20956;-56
2023/08/24 00:58:20;;;;;;;15.68;9.07;;;18.00;99.90;;;;;;5025087;28;20132;-56
2023/08/24 01:00:46;;;;;;;14.38;8.88;;;17.90;99.90;;;;;;5005369;28;20124;-55
2023/08/24 01:03:12;;;;;;;16.10;8.73;;;17.80;99.90;;;;;;5010363;28;20069;-55
2023/08/24 01:05:37;;;;;;;12.88;8.20;;;17.90;99.90;;;;;;5008717;28;20529;-54
2023/08/24 01:08:04;;;;;;;15.05;8.45;;;17.90;99.90;;;;;;5021316;28;20398;-56
2023/08/24 01:10:44;;;;;;;13.90;9.18;;;17.80;99.90;;;;;;5006051;28;20489;-55
2023/08/24 01:13:14;;;;;;;15.07;8.93;;;17.80;99.90;;;;;;5005027;28;20033;-54
2023/08/24 01:15:51;;;;;;;17.08;9.10;;;17.80;99.90;;;;;;5006241;28;20091;-56
2023/08/24 01:18:20;;;;;;;15.10;9.80;;;17.80;99.90;;;;;;5008766;28;20106;-56
2023/08/24 01:20:46;;;;;;;12.55;8.50;;;17.80;99.90;;;;;;5016246;28;20041;-55
2023/08/24 01:23:23;;;;;;;21.65;10.55;;;17.60;99.90;;;;;;5003236;28;20502;-55
2023/08/24 01:25:53;;;;;;;17.73;9.40;;;17.60;99.90;;;;;;5007802;28;20034;-60
2023/08/24 01:28:21;;;;;;;23.40;10.43;;;17.80;99.90;;;;;;5005559;28;20188;-54
2023/08/24 01:30:47;;;;;;;14.75;10.55;;;17.90;99.90;;;;;;5006995;28;20076;-55
2023/08/24 01:33:13;;;;;;;16.13;10.68;;;18.00;99.90;;;;;;5002250;28;20393;-56
2023/08/24 01:35:40;;;;;;;23.80;12.75;;;18.10;99.90;;;;;;5005852;28;20046;-57
2023/08/24 01:38:06;;;;;;;19.58;11.05;;;18.10;99.90;;;;;;5005571;28;20048;-57
2023/08/24 01:40:54;;;;;;;17.55;11.02;;;17.90;99.90;;;;;;5005318;28;20084;-57
2023/08/24 01:43:25;;;;;;;18.27;11.02;;;17.80;99.90;;;;;;5006679;28;20037;-57
2023/08/24 01:45:53;;;;;;;20.55;10.50;;;17.80;99.90;;;;;;5025875;28;20061;-57
2023/08/24 01:48:19;;;;;;;18.45;10.18;;;17.80;99.90;;;;;;5022298;28;20632;-57
2023/08/24 01:50:46;;;;;;;14.52;9.40;;;17.80;99.90;;;;;;5003811;28;20048;-57
2023/08/24 01:53:12;;;;;;;15.13;9.90;;;17.90;99.90;;;;;;5024014;28;20045;-57
2023/08/24 01:55:38;;;;;;;14.65;8.65;;;17.90;99.90;;;;;;5007814;28;20141;-57
2023/08/24 01:58:03;;;;;;;17.88;10.18;;;17.70;99.90;;;;;;5004409;28;20116;-57
2023/08/24 02:00:29;;;;;;;14.45;10.10;;;17.50;99.90;;;;;;5006920;28;20115;-57
2023/08/24 02:02:55;;;;;;;16.45;10.35;;;17.50;99.90;;;;;;5010788;28;20041;-55
2023/08/24 02:05:20;;;;;;;18.10;10.55;;;17.50;99.90;;;;;;5002880;28;20382;-56
2023/08/24 02:07:46;;;;;;;20.13;11.65;;;17.50;99.90;;;;;;4997831;28;20395;-55
2023/08/24 02:10:12;;;;;;;20.67;10.35;;;17.60;99.90;;;;;;5004291;28;20490;-55
2023/08/24 02:12:37;;;;;;;17.88;10.98;;;17.70;99.90;;;;;;5004491;28;20056;-55
2023/08/24 02:15:03;;;;;;;20.05;10.48;;;17.70;99.90;;;;;;5004169;28;20041;-55
2023/08/24 02:17:29;;;;;;;14.05;10.25;;;17.70;99.90;;;;;;5004335;28;20034;-56
2023/08/24 02:19:55;;;;;;;16.27;9.77;;;17.50;99.90;;;;;;5004742;28;20030;-56
2023/08/24 02:22:20;;;;;;;16.35;9.63;;;17.40;99.90;;;;;;5009007;28;20064;-55
2023/08/24 02:24:46;;;;;;;17.83;10.98;;;17.50;99.90;;;;;;5015930;28;20061;-57
2023/08/24 02:27:12;;;;;;;18.08;11.38;;;17.60;99.90;;;;;;5001721;28;20034;-56
2023/08/24 02:29:38;;;;;;;19.48;11.35;;;17.50;99.90;;;;;;5001765;28;20693;-57
2023/08/24 02:32:04;;;;;;;20.02;12.90;;;17.60;99.90;;;;;;4993980;28;20035;-57
2023/08/24 02:34:31;;;;;;;21.17;12.95;;;17.60;99.90;;;;;;5007472;28;20420;-56
2023/08/24 02:36:57;;;;;;;22.27;12.48;;;17.70;99.90;;;;;;5015646;28;20065;-56
2023/08/24 02:39:23;;;;;;;19.58;11.90;;;17.70;99.90;;;;;;4999382;28;20049;-57
2023/08/24 02:41:49;;;;;;;21.83;12.43;;;17.50;99.90;;;;;;5003119;28;20029;-57
2023/08/24 02:44:14;;;;;;;20.15;12.80;;;17.50;99.90;;;;;;5018145;28;20034;-57
2023/08/24 02:46:40;;;;;;;20.35;12.60;;;17.40;99.90;;;;;;5024267;28;20039;-56
2023/08/24 02:49:06;;;;;;;22.10;12.55;;;17.60;99.90;;;;;;5014245;28;20117;-55
2023/08/24 02:51:32;;;;;;;19.38;12.55;;;17.60;99.90;;;;;;5004902;28;20053;-55
2023/08/24 02:53:57;;;;;;;17.80;12.25;;;17.70;99.90;;;;;;5012328;28;20034;-57
2023/08/24 02:56:23;;;;;;;19.30;13.18;;;17.70;99.90;;;;;;5004373;28;20401;-57
2023/08/24 02:58:48;;;;;;;19.08;13.10;;;17.80;99.90;;;;;;5004753;28;20065;-56
2023/08/24 03:01:14;;;;;;;23.10;13.32;;;17.80;99.90;;;;;;5003596;28;20490;-57
2023/08/24 03:03:40;;;;;;;21.05;12.18;;;17.80;99.90;;;;;;5003458;28;20378;-56
2023/08/24 03:06:07;;;;;;;18.17;11.85;;;17.70;99.90;;;;;;5008290;28;20091;-55
2023/08/24 03:08:34;;;;;;;19.42;12.63;;;17.70;99.90;;;;;;5008858;28;20062;-55
2023/08/24 03:11:00;;;;;;;21.58;12.38;;;17.70;99.90;;;;;;5007477;28;20046;-56
2023/08/24 03:13:27;;;;;;;18.13;11.68;;;17.90;99.90;;;;;;5005460;28;20057;-56
2023/08/24 03:15:53;;;;;;;19.55;11.93;;;18.00;99.90;;;;;;5004815;28;20073;-56
2023/08/24 03:18:19;;;;;;;18.75;11.13;;;18.00;99.90;;;;;;5004694;28;20068;-55
2023/08/24 03:20:46;;;;;;;14.90;10.70;;;17.90;99.90;;;;;;5003276;28;20038;-56
2023/08/24 03:23:12;;;;;;;17.80;10.00;;;17.80;99.90;;;;;;5001336;28;20486;-56
2023/08/24 03:25:39;;;;;;;20.67;11.70;;;17.70;99.90;;;;;;4999263;28;20108;-56
2023/08/24 03:28:09;;;;;;;20.70;11.10;;;17.70;99.90;;;;;;5000139;28;20041;-56
2023/08/24 03:30:36;;;;;;;15.85;10.57;;;17.80;99.90;;;;;;4998555;28;20042;-56
2023/08/24 03:33:03;;;;;;;15.32;10.70;;;17.80;99.90;;;;;;5003070;28;20092;-57
2023/08/24 03:35:30;;;;;;;17.70;11.95;;;17.80;99.90;;;;;;4996966;28;20053;-57
2023/08/24 03:37:56;;;;;;;23.38;12.60;;;17.80;99.90;;;;;;5002519;28;20042;-57
2023/08/24 03:40:21;;;;;;;19.73;12.80;;;18.00;99.90;;;;;;4999292;28;20046;-57
2023/08/24 03:42:47;;;;;;;20.95;12.80;;;18.10;99.90;;;;;;4994102;28;20069;-55
2023/08/24 03:45:13;;;;;;;20.42;11.95;;;18.00;99.90;;;;;;5000390;28;20084;-57
2023/08/24 03:47:38;;;;;;;17.17;12.32;;;18.00;99.90;;;;;;5016324;28;20064;-57
2023/08/24 03:50:05;;;;;;;22.65;13.27;;;18.10;99.90;;;;;;5005839;28;20049;-57
2023/08/24 03:52:31;;;;;;;20.17;12.75;;;18.20;99.90;;;;;;5023558;28;20053;-57
2023/08/24 03:54:57;;;;;;;23.85;12.70;;;18.20;99.90;;;;;;5015864;28;20070;-57
2023/08/24 03:57:22;;;;;;;22.42;11.93;;;18.20;99.90;;;;;;5001256;28;20046;-57
2023/08/24 03:59:48;;;;;;;23.77;11.38;;;18.30;99.90;;;;;;5002171;28;20032;-57
2023/08/24 04:02:14;;;;;;;20.20;11.40;;;18.30;99.90;;;;;;5004943;28;20034;-56
2023/08/24 04:04:40;;;;;;;15.73;11.23;;;18.30;99.90;;;;;;5013878;28;20504;-56
2023/08/24 04:07:05;;;;;;;19.63;10.52;;;18.30;99.90;;;;;;5013381;28;20527;-58
2023/08/24 04:09:31;;;;;;;21.83;11.70;;;18.20;99.90;;;;;;5006028;28;20056;-57
2023/08/24 04:11:56;;;;;;;22.52;12.73;;;18.20;99.90;;;;;;4999140;28;20042;-58
2023/08/24 04:14:22;;;;;;;22.75;13.07;;;18.20;99.90;;;;;;5004024;28;20049;-57
2023/08/24 04:16:48;;;;;;;20.88;13.43;;;18.20;99.90;;;;;;5005861;28;20058;-58
2023/08/24 04:19:13;;;;;;;22.42;12.07;;;18.10;99.90;;;;;;5013815;28;20117;-57
2023/08/24 04:21:39;;;;;;;21.10;12.73;;;18.10;99.90;;;;;;5006237;28;20069;-56
2023/08/24 04:24:05;;;;;;;21.27;12.85;;;18.10;99.90;;;;;;5001400;28;20038;-58
2023/08/24 04:26:30;;;;;;;25.90;13.57;;;18.20;99.90;;;;;;5010508;28;20034;-57
2023/08/24 04:28:56;;;;;;;21.42;13.65;;;18.40;99.90;;;;;;5008310;28;20048;-56
2023/08/24 04:31:22;;;;;;;21.77;13.55;;;18.40;99.90;;;;;;5014148;28;20465;-57
2023/08/24 04:33:47;;;;;;;19.88;12.68;;;18.60;99.90;;;;;;5021057;28;20076;-57
2023/08/24 04:36:13;;;;;;;24.75;13.55;;;18.60;99.90;;;;;;5008119;28;20057;-58
2023/08/24 04:38:38;;;;;;;23.65;13.55;;;18.50;99.90;;;;;;4999565;28;20050;-57
2023/08/24 04:41:08;;;;;;;22.15;13.30;;;18.60;99.90;;;;;;5004948;28;20053;-57
2023/08/24 04:43:34;;;;;;;20.58;12.70;;;18.50;99.90;;;;;;5005249;28;20517;-55
2023/08/24 04:46:00;;;;;;;26.50;13.73;;;18.60;99.90;;;;;;4996475;28;20049;-56
2023/08/24 04:48:26;;;;;;;27.05;14.18;;;18.60;99.90;;;;;;5010649;28;20042;-56
2023/08/24 04:50:56;;;;;;;21.70;12.98;;;18.70;99.90;;;;;;5016860;28;20037;-55
2023/08/24 04:53:21;;;;;;;25.27;14.02;;;18.60;99.90;;;;;;5005164;28;20051;-56
2023/08/24 04:55:47;;;;;;;23.65;13.93;;;18.60;99.90;;;;;;5000529;28;20042;-57
2023/08/24 04:58:13;;;;;;;22.02;14.48;;;18.70;99.90;;;;;;5006511;28;20054;-59
2023/08/24 05:00:39;;;;;;;26.10;13.80;;;18.70;99.90;;;;;;5004545;28;20037;-58
2023/08/24 05:03:05;;;;;;;24.42;14.25;;;18.70;99.90;;;;;;5017248;28;20026;-55
2023/08/24 05:05:32;;;;;;;29.92;14.93;;;18.70;99.90;;;;;;5004588;28;20124;-56
2023/08/24 05:07:59;;;;;;;24.83;14.00;;;18.70;99.90;;;;;;5003924;28;20091;-55
2023/08/24 05:10:25;;;;;;;21.75;13.20;;;18.70;99.90;;;;;;5002148;28;20240;-56
2023/08/24 05:12:51;;;;;;;22.25;13.82;;;18.70;99.90;;;;;;4996862;28;20194;-56
2023/08/24 05:15:17;;;;;;;24.13;12.50;;;18.70;99.90;;;;;;5005094;28;20096;-56
2023/08/24 05:17:42;;;;;;;26.60;13.20;;;18.90;99.90;;;;;;5003888;28;20410;-55
2023/08/24 05:20:11;;;;;;;22.63;13.52;;;18.80;99.90;;;;;;5001118;28;20381;-56
2023/08/24 05:22:38;;;;;;;22.90;13.55;;;18.80;99.90;;;;;;5003347;28;20037;-56
2023/08/24 05:25:04;;;;;;;24.25;13.30;;;18.70;99.90;;;;;;4998534;28;20141;-56
2023/08/24 05:27:30;;;;;;;24.33;13.07;;;18.70;99.90;;;;;;5002231;28;20041;-55
2023/08/24 05:29:56;;;;;;;24.48;12.75;;;18.80;99.90;;;;;;5000274;28;20042;-55
2023/08/24 05:32:21;;;;;;;20.90;12.93;;;18.80;99.90;;;;;;5000663;28;20061;-56
2023/08/24 05:34:47;;;;;;;22.20;12.82;;;18.80;99.90;;;;;;5000620;28;20253;-56
2023/08/24 05:37:12;;;;;;;130.85;88.45;;;18.90;99.90;;;;;;5002034;28;20114;-55
2023/08/24 05:39:38;;;;;;;71.50;46.47;;;18.90;99.90;;;;;;5026889;28;20053;-57
2023/08/24 05:42:04;;;;;;;23.83;14.85;;;19.00;99.90;;;;;;5003934;28;20609;-56
2023/08/24 05:44:30;;;;;;;24.70;13.13;;;18.90;99.90;;;;;;4996311;28;20038;-57
2023/08/24 05:46:56;;;;;;;19.33;12.20;;;19.00;99.90;;;;;;5008749;28;20957;-56
2023/08/24 05:49:21;;;;;;;24.80;13.63;;;19.00;99.90;;;;;;4999407;28;20053;-56
2023/08/24 05:51:49;;;;;;;19.10;13.23;;;19.00;99.90;;;;;;4999761;28;20839;-57
2023/08/24 05:54:18;;;;;;;24.17;13.10;;;19.00;99.90;;;;;;5006413;28;20045;-57
2023/08/24 05:56:46;;;;;;;24.17;13.50;;;19.00;99.90;;;;;;5019113;28;20049;-56
2023/08/24 05:59:13;;;;;;;23.80;14.30;;;19.10;99.90;;;;;;4999808;28;20041;-56
2023/08/24 06:01:39;;;;;;;19.58;12.32;;;19.10;99.90;;;;;;5024105;28;20064;-55
2023/08/24 06:04:05;;;;;;;19.40;13.48;;;19.20;99.90;;;;;;5024986;28;20049;-56
2023/08/24 06:06:31;;;;;;;25.60;14.05;;;19.10;99.90;;;;;;4996078;28;20030;-55
2023/08/24 06:08:56;;;;;;;20.85;13.07;;;19.20;99.90;;;;;;4993848;28;20701;-56
2023/08/24 06:11:22;;;;;;;22.73;13.18;;;19.20;99.90;;;;;;5010591;28;20037;-57
2023/08/24 06:13:48;;;;;;;19.75;12.55;;;19.30;99.90;;;;;;5001323;28;20037;-54
2023/08/24 06:16:14;;;;;;;20.70;12.95;;;19.30;99.90;;;;;;5009264;28;20399;-56
2023/08/24 06:18:39;;;;;;;23.33;13.15;;;19.30;99.90;;;;;;4999639;28;20044;-56
2023/08/24 06:21:05;;;;;;;18.30;11.95;;;19.30;99.90;;;;;;5001150;28;20367;-56
2023/08/24 06:23:30;;;;;;;19.98;12.35;;;19.20;99.90;;;;;;5009300;28;20415;-55
2023/08/24 06:25:56;;;;;;;22.67;11.50;;;19.30;99.90;;;;;;5002493;28;20057;-56
2023/08/24 06:28:22;;;;;;;24.50;13.73;;;19.30;99.90;;;;;;5000381;28;20050;-55
2023/08/24 06:30:47;;;;;;;47.75;28.42;;;19.50;99.90;;;;;;5003739;28;20462;-56
2023/08/24 06:33:13;;;;;;;140.23;98.82;;;19.60;99.90;;;;;;5000635;28;20046;-57
2023/08/24 06:35:40;;;;;;;29.13;17.00;;;19.60;99.90;;;;;;5003946;28;20410;-57
2023/08/24 06:38:06;;;;;;;29.40;14.13;;;19.80;99.90;;;;;;4998653;28;20076;-57
2023/08/24 06:40:31;;;;;;;19.83;12.48;;;19.80;99.90;;;;;;5013162;28;20777;-58
2023/08/24 06:42:57;;;;;;;20.63;11.85;;;19.80;99.90;;;;;;5023426;28;20386;-55
2023/08/24 06:45:22;;;;;;;26.30;12.13;;;19.90;99.90;;;;;;5010324;28;20117;-56
2023/08/24 06:47:48;;;;;;;18.02;11.07;;;20.20;99.90;;;;;;4995758;28;20037;-58
2023/08/24 06:50:15;;;;;;;20.80;10.57;;;20.30;99.90;;;;;;5008854;28;20387;-57
2023/08/24 06:52:41;;;;;;;18.48;10.52;;;20.30;99.90;;;;;;5004328;28;20091;-58
2023/08/24 06:55:09;;;;;;;15.95;9.70;;;20.40;99.90;;;;;;5000675;28;20163;-57
2023/08/24 06:57:35;;;;;;;16.05;9.50;;;20.40;99.90;;;;;;5006869;28;20117;-57
2023/08/24 07:00:00;;;;;;;25.13;11.48;;;20.50;99.90;;;;;;5010811;28;20125;-57
2023/08/24 07:02:26;;;;;;;15.30;8.77;;;20.50;99.90;;;;;;5004888;28;20030;-57
2023/08/24 07:04:52;;;;;;;15.02;8.55;;;20.60;99.90;;;;;;5006537;28;20132;-57
2023/08/24 07:07:17;;;;;;;14.77;8.68;;;20.60;99.90;;;;;;5011289;28;20033;-57
2023/08/24 07:09:43;;;;;;;17.25;9.27;;;20.70;99.90;;;;;;5007802;28;20453;-56
2023/08/24 07:12:10;;;;;;;18.33;8.43;;;20.80;99.90;;;;;;5006038;28;20546;-58
2023/08/24 07:14:36;;;;;;;15.90;8.95;;;20.90;99.90;;;;;;5010409;28;20490;-58
2023/08/24 07:17:02;;;;;;;15.55;7.97;;;20.90;99.90;;;;;;5010283;28;20727;-58
2023/08/24 07:19:28;;;;;;;18.05;8.50;;;20.90;99.90;;;;;;5009934;28;20127;-58
2023/08/24 07:21:54;;;;;;;17.65;8.13;;;21.00;99.90;;;;;;5008591;28;20389;-58
2023/08/24 07:24:20;;;;;;;21.33;8.35;;;21.10;99.90;;;;;;5004694;28;20326;-55
2023/08/24 07:26:46;;;;;;;18.80;7.85;;;21.20;99.90;;;;;;5001867;28;20038;-55
2023/08/24 07:29:12;;;;;;;12.95;7.32;;;21.20;99.90;;;;;;4997243;28;20041;-56
2023/08/24 07:31:38;;;;;;;16.92;7.32;;;21.30;99.90;;;;;;5001701;28;20038;-57
2023/08/24 07:34:03;;;;;;;19.98;8.30;;;21.40;99.90;;;;;;5009147;28;20045;-55
2023/08/24 07:36:30;;;;;;;14.55;7.53;;;21.50;99.90;;;;;;5005074;28;20041;-56
2023/08/24 07:38:56;;;;;;;16.38;7.45;;;21.60;99.90;;;;;;5011525;28;20045;-56
2023/08/24 07:41:22;;;;;;;15.05;7.07;;;21.60;99.90;;;;;;5005418;28;20497;-56
2023/08/24 07:43:47;;;;;;;14.93;7.18;;;21.70;99.90;;;;;;5014579;28;20030;-55
2023/08/24 07:46:13;;;;;;;16.58;7.25;;;21.80;99.90;;;;;;5023855;28;20037;-56
2023/08/24 07:48:39;;;;;;;13.82;7.20;;;21.80;99.90;;;;;;5016830;28;20042;-56
2023/08/24 07:51:05;;;;;;;15.98;8.13;;;21.90;99.90;;;;;;4999813;28;20212;-56
2023/08/24 07:53:32;;;;;;;13.07;6.63;;;22.00;99.90;;;;;;5016394;28;20038;-58
2023/08/24 07:55:58;;;;;;;20.88;7.15;;;22.10;99.90;;;;;;4995221;28;20038;-59
2023/08/24 07:58:25;;;;;;;11.85;6.15;;;22.20;99.90;;;;;;5013124;28;20057;-57
2023/08/24 08:00:54;;;;;;;12.23;5.53;;;22.20;99.90;;;;;;5023766;28;20134;-57
2023/08/24 08:03:20;;;;;;;11.00;5.68;;;22.20;99.90;;;;;;5026533;28;20041;-58
2023/08/24 08:05:46;;;;;;;15.57;6.82;;;22.30;99.90;;;;;;5026233;28;20386;-56
2023/08/24 08:08:14;;;;;;;14.85;6.15;;;22.40;99.90;;;;;;5022149;28;20065;-57
2023/08/24 08:10:40;;;;;;;11.13;5.80;;;22.50;99.90;;;;;;5026534;28;20120;-58
2023/08/24 08:13:06;;;;;;;10.10;5.60;;;22.60;99.90;;;;;;5023113;28;20030;-58
2023/08/24 08:15:31;;;;;;;10.82;5.28;;;22.70;99.90;;;;;;5012724;28;20038;-57
2023/08/24 08:17:57;;;;;;;11.50;5.82;;;22.80;99.90;;;;;;5005349;28;20551;-58
2023/08/24 08:20:23;;;;;;;10.52;5.70;;;22.90;99.90;;;;;;5017005;28;20503;-58
2023/08/24 08:22:48;;;;;;;15.27;6.72;;;23.00;99.90;;;;;;5023740;28;20036;-58
2023/08/24 08:25:17;;;;;;;11.93;5.90;;;23.00;99.90;;;;;;5019438;28;20040;-58
2023/08/24 08:27:43;;;;;;;11.15;5.50;;;23.00;99.90;;;;;;5024717;28;20033;-58
2023/08/24 08:30:09;;;;;;;12.05;5.53;;;23.20;99.90;;;;;;5024456;28;20030;-58
2023/08/24 08:32:35;;;;;;;11.25;5.07;;;23.10;99.90;;;;;;5004821;28;20158;-56
2023/08/24 08:35:01;;;;;;;8.93;5.00;;;23.20;99.90;;;;;;5004088;28;20451;-56
2023/08/24 08:37:27;;;;;;;12.15;5.78;;;23.30;99.90;;;;;;5005789;28;20052;-56
2023/08/24 08:39:52;;;;;;;12.93;5.22;;;23.30;99.90;;;;;;5021626;28;20042;-56
2023/08/24 08:42:18;;;;;;;10.68;5.63;;;23.30;99.90;;;;;;5026896;28;20092;-56
2023/08/24 08:44:46;;;;;;;13.00;5.53;;;23.40;99.90;;;;;;5024710;28;20064;-56
2023/08/24 08:47:13;;;;;;;10.18;4.97;;;23.40;99.90;;;;;;5024364;28;20031;-56
2023/08/24 08:49:39;;;;;;;10.38;4.57;;;23.50;99.90;;;;;;5014707;28;20243;-56
2023/08/24 08:52:06;;;;;;;13.23;5.43;;;23.50;99.90;;;;;;5000754;28;20038;-55
2023/08/24 08:54:32;;;;;;;13.57;5.43;;;23.60;99.90;;;;;;5001496;28;20327;-56
2023/08/24 08:56:59;;;;;;;13.38;4.90;;;23.70;99.90;;;;;;4999897;28;20030;-57
2023/08/24 08:59:29;;;;;;;11.25;5.28;;;23.70;99.90;;;;;;4999307;28;20038;-55
2023/08/24 09:02:00;;;;;;;9.32;5.32;;;23.80;99.90;;;;;;4998003;28;20118;-56
2023/08/24 09:04:29;;;;;;;8.90;4.85;;;23.90;99.90;;;;;;5014442;28;20042;-57
2023/08/24 09:06:56;;;;;;;10.23;4.82;;;23.90;99.90;;;;;;5024476;28;20053;-56
2023/08/24 09:09:22;;;;;;;11.95;4.80;;;23.90;99.90;;;;;;5025120;28;20553;-55
2023/08/24 09:11:48;;;;;;;10.90;5.25;;;24.10;99.90;;;;;;5024775;28;20025;-56
2023/08/24 09:14:14;;;;;;;13.68;5.10;;;24.20;99.90;;;;;;5021421;28;20556;-56
2023/08/24 09:16:41;;;;;;;8.43;4.38;;;24.20;99.90;;;;;;5025134;28;20041;-56
2023/08/24 09:19:07;;;;;;;12.75;5.30;;;24.30;99.90;;;;;;5024918;28;20065;-56
2023/08/24 09:21:41;;;;;;;15.25;5.78;;;24.40;99.90;;;;;;5025570;28;20133;-56
2023/08/24 09:24:07;;;;;;;7.55;5.07;;;24.40;99.90;;;;;;5024329;28;20068;-56
2023/08/24 09:26:42;;;;;;;14.32;5.32;;;24.50;99.90;;;;;;5007020;28;20795;-55
2023/08/24 09:29:13;;;;;;;13.48;4.70;;;24.60;99.90;;;;;;5003600;28;20037;-56
2023/08/24 09:31:39;;;;;;;9.32;4.70;;;24.70;99.90;;;;;;5001349;28;20103;-56
2023/08/24 09:34:05;;;;;;;10.27;4.93;;;24.70;99.90;;;;;;5017588;28;20064;-56
2023/08/24 09:36:32;;;;;;;13.43;4.70;;;24.80;99.90;;;;;;5020110;28;20101;-56
2023/08/24 09:39:06;;;;;;;13.07;5.00;;;24.80;99.90;;;;;;5004387;28;20042;-56
2023/08/24 09:41:47;;;;;;;9.75;4.90;;;24.90;99.90;;;;;;5014729;28;20030;-56
2023/08/24 09:44:13;;;;;;;11.23;5.03;;;25.00;99.90;;;;;;5013128;28;20034;-59
2023/08/24 09:46:42;;;;;;;13.00;5.18;;;24.90;99.90;;;;;;5022930;28;20745;-58
2023/08/24 09:49:09;;;;;;;15.90;5.28;;;24.90;99.90;;;;;;5023810;28;20034;-58
2023/08/24 09:51:36;;;;;;;14.93;5.00;;;25.00;99.90;;;;;;5024052;28;20083;-56
2023/08/24 09:54:08;;;;;;;13.77;5.07;;;25.00;99.90;;;;;;5022770;28;20061;-55
2023/08/24 09:56:37;;;;;;;11.02;4.60;;;25.10;99.90;;;;;;5002215;28;20065;-59
2023/08/24 09:59:13;;;;;;;21.88;5.13;;;25.10;99.90;;;;;;5009581;28;20089;-58
2023/08/24 10:01:47;;;;;;;12.55;4.70;;;25.20;99.90;;;;;;5019330;28;20041;-59
2023/08/24 10:04:16;;;;;;;10.90;4.85;;;25.30;99.90;;;;;;5000245;28;20327;-57
2023/08/24 10:06:44;;;;;;;11.98;5.13;;;25.30;99.90;;;;;;5002239;28;20042;-56
2023/08/24 10:09:27;;;;;;;12.10;5.68;;;25.30;99.90;;;;;;5008464;28;20490;-59
2023/08/24 10:12:00;;;;;;;11.70;4.90;;;25.40;99.90;;;;;;5015698;28;20124;-57
2023/08/24 10:14:31;;;;;;;;;;;25.50;99.90;;;;;;4995182;28;20602;-56
2023/08/24 10:16:57;;;;;;;10.68;4.55;;;25.50;99.90;;;;;;4998080;28;20360;-56
2023/08/24 10:19:24;;;;;;;10.55;4.45;;;25.60;99.90;;;;;;5005878;28;20373;-56
2023/08/24 10:21:53;;;;;;;8.68;4.60;;;25.60;99.90;;;;;;5019353;28;20037;-56
2023/08/24 10:24:20;;;;;;;6.68;4.35;;;25.70;99.90;;;;;;5017383;28;20385;-57
2023/08/24 10:26:47;;;;;;;10.30;4.47;;;25.70;99.90;;;;;;5024962;28;20053;-56
2023/08/24 10:29:14;;;;;;;10.02;4.22;;;25.80;99.90;;;;;;5006589;28;20443;-57
2023/08/24 10:31:41;;;;;;;8.80;4.50;;;25.90;99.90;;;;;;5000985;28;20076;-56
2023/08/24 10:34:08;;;;;;;8.63;4.75;;;26.00;99.90;;;;;;5004242;28;20424;-57
2023/08/24 10:36:34;;;;;;;10.63;4.60;;;26.20;99.90;;;;;;5012929;28;20042;-57
2023/08/24 10:39:06;;;;;;;7.32;4.10;;;26.20;99.90;;;;;;5003826;28;20493;-57
2023/08/24 10:41:52;;;;;;;15.13;5.10;;;26.10;99.90;;;;;;5014501;28;20631;-56
2023/08/24 10:44:37;;;;;;;9.30;4.72;;;26.20;99.90;;;;;;5017439;28;20514;-56
2023/08/24 10:47:19;;;;;;;11.55;4.90;;;26.20;99.90;;;;;;5004072;28;20092;-56
2023/08/24 10:49:56;;;;;;;10.65;4.15;;;26.40;99.90;;;;;;5002667;28;20465;-57
2023/08/24 10:52:37;;;;;;;13.90;6.88;;;26.30;99.90;;;;;;5003566;28;20662;-57
2023/08/24 10:55:04;;;;;;;14.48;5.05;;;26.30;99.90;;;;;;5004035;28;20038;-56
2023/08/24 10:57:41;;;;;;;12.70;5.15;;;26.30;99.90;;;;;;5002814;28;20034;-57
2023/08/24 11:00:11;;;;;;;11.52;5.03;;;26.30;99.90;;;;;;4996998;28;20034;-56
2023/08/24 11:02:48;;;;;;;18.30;5.43;;;26.30;99.90;;;;;;4998874;28;20038;-59
2023/08/24 11:05:35;;;;;;;42.40;6.80;;;26.30;99.90;;;;;;5004034;28;20192;-59
2023/08/24 11:08:05;;;;;;;32.60;5.93;;;26.30;99.90;;;;;;4997347;28;20057;-58
2023/08/24 11:10:41;;;;;;;27.52;5.78;;;26.30;99.90;;;;;;5018975;28;20169;-59
2023/08/24 11:13:12;;;;;;;20.08;4.93;;;26.30;99.90;;;;;;5001587;28;20422;-58
2023/08/24 11:15:40;;;;;;;27.58;5.28;;;26.40;99.90;;;;;;5005910;28;20065;-58
2023/08/24 11:18:26;;;;;;;39.45;6.68;;;26.30;99.90;;;;;;5012671;28;20784;-59
2023/08/24 11:26:53;;;;;;;20.27;6.50;;;26.10;99.90;;;;;;4968589;23;20112;-61
2023/08/24 11:29:19;;;;;;;14.73;4.95;;;26.00;99.90;;;;;;4982079;28;20081;-60
2023/08/24 11:31:45;;;;;;;14.70;5.80;;;25.90;99.90;;;;;;4983762;28;20446;-61
2023/08/24 11:34:14;;;;;;;8.68;5.07;;;25.90;99.90;;;;;;4986622;28;20026;-61
2023/08/24 11:40:03;;;;;;;12.27;4.68;;;25.80;99.90;;;;;;4891132;28;20037;-59
2023/08/24 11:42:36;;;;;;;12.07;4.88;;;25.80;99.90;;;;;;4999873;28;20048;-60
2023/08/24 11:45:01;;;;;;;10.75;4.30;;;25.90;99.90;;;;;;4997937;28;20517;-60
2023/08/24 11:47:28;;;;;;;9.63;4.97;;;26.00;99.90;;;;;;4991713;28;20045;-60
2023/08/24 11:49:54;;;;;;;10.70;4.97;;;26.00;99.90;;;;;;5001490;28;20917;-59
2023/08/24 11:52:20;;;;;;;10.48;4.75;;;26.00;99.90;;;;;;5005197;28;20038;-60
2023/08/24 11:54:45;;;;;;;9.63;4.82;;;26.10;99.90;;;;;;5000552;28;20022;-59
2023/08/24 11:57:11;;;;;;;13.25;4.55;;;26.20;99.90;;;;;;4998467;28;20092;-59
2023/08/24 11:59:39;;;;;;;9.68;4.68;;;26.20;99.90;;;;;;4991492;28;20066;-60
2023/08/24 12:02:04;;;;;;;10.43;5.13;;;26.20;99.90;;;;;;5000283;28;20030;-60
2023/08/24 12:04:39;;;;;;;11.38;4.68;;;26.20;99.90;;;;;;4994540;28;20592;-59
2023/08/24 12:07:11;;;;;;;9.70;4.97;;;26.30;99.90;;;;;;4999091;28;20389;-59
2023/08/24 12:09:41;;;;;;;8.23;4.57;;;26.40;99.90;;;;;;4993738;28;20124;-60
2023/08/24 12:12:18;;;;;;;12.57;4.70;;;26.50;99.90;;;;;;4999927;28;20386;-60
2023/08/24 12:14:46;;;;;;;12.85;4.93;;;26.40;99.90;;;;;;4994623;28;20034;-60
2023/08/24 12:17:12;;;;;;;9.77;5.30;;;26.40;99.90;;;;;;4980844;28;20027;-59
2023/08/24 12:19:45;;;;;;;9.05;5.28;;;26.30;99.90;;;;;;4995448;28;20494;-59
2023/08/24 12:22:17;;;;;;;10.88;5.35;;;26.20;99.90;;;;;;4999676;28;20120;-60
2023/08/24 12:24:46;;;;;;;12.07;5.47;;;26.10;99.90;;;;;;5003387;28;20542;-60
2023/08/24 12:27:25;;;;;;;11.48;5.65;;;26.00;99.90;;;;;;4987016;28;20042;-61
2023/08/24 12:29:52;;;;;;;15.60;5.85;;;25.80;99.90;;;;;;4986664;28;20041;-61
2023/08/24 12:32:25;;;;;;;13.30;5.80;;;25.70;99.90;;;;;;4985584;28;20058;-60
2023/08/24 12:34:54;;;;;;;25.55;6.50;;;25.50;99.90;;;;;;4989346;28;20481;-60
2023/08/24 12:37:20;;;;;;;11.48;5.40;;;25.50;99.90;;;;;;4983964;28;20060;-60
2023/08/24 12:39:46;;;;;;;16.52;5.55;;;25.50;99.90;;;;;;4986457;28;20417;-60
2023/08/24 12:42:14;;;;;;;12.68;5.40;;;25.50;99.90;;;;;;4985890;28;20042;-60
2023/08/24 12:44:39;;;;;;;14.95;5.03;;;25.40;99.90;;;;;;4999087;28;20038;-61